Time;durP1;ratioP1;P1;durP2;ratioP2;P2;SDS_P1;SDS_P2;PMS_P1;PMS_P2;Temp;Humidity;BMP_temperature;BMP_pressure;BME280_temperature;BME280_humidity;BME280_pressure;Samples;Min_cycle;Max_cycle;Signal;HPM_P1;HPM_P2
2023/05/24 00:02:15;;;;;;;25.92;7.53;;;;;;;11.74;63.83;102232.41;7396127;19;20022;-51
2023/05/24 00:04:43;;;;;;;25.50;8.30;;;;;;;11.81;63.59;102232.94;7394537;19;20018;-50
2023/05/24 00:07:11;;;;;;;24.02;7.53;;;;;;;11.84;63.57;102225.69;7395508;19;20028;-53
2023/05/24 00:09:38;;;;;;;27.10;8.65;;;;;;;11.82;63.34;102224.03;7393037;19;20023;-52
2023/05/24 00:12:05;;;;;;;27.30;9.23;;;;;;;11.74;63.75;102223.59;7395312;19;20010;-53
2023/05/24 00:14:33;;;;;;;31.00;9.55;;;;;;;11.78;63.88;102223.34;7393933;19;20035;-51
2023/05/24 00:17:00;;;;;;;29.38;10.60;;;;;;;11.82;63.58;102222.22;7394934;19;20102;-53
2023/05/24 00:19:28;;;;;;;28.88;10.15;;;;;;;11.79;63.51;102222.41;7393756;19;20014;-53
2023/05/24 00:21:55;;;;;;;29.35;8.68;;;;;;;11.69;63.63;102222.06;7394742;19;20093;-53
2023/05/24 00:24:22;;;;;;;28.33;8.52;;;;;;;11.78;63.59;102227.78;7394079;19;20332;-54
2023/05/24 00:26:49;;;;;;;27.58;8.80;;;;;;;11.84;63.35;102230.16;7394737;19;20022;-52
2023/05/24 00:29:16;;;;;;;29.73;9.30;;;;;;;11.82;63.60;102226.69;7392957;19;20086;-55
2023/05/24 00:31:44;;;;;;;31.05;9.30;;;;;;;11.79;63.33;102233.03;7390371;19;20015;-49
2023/05/24 00:34:11;;;;;;;33.88;8.98;;;;;;;11.75;63.56;102220.00;7392597;19;20011;-49
2023/05/24 00:36:38;;;;;;;30.50;8.70;;;;;;;11.65;63.77;102215.19;7393928;19;20021;-51
2023/05/24 00:39:05;;;;;;;29.70;9.70;;;;;;;11.57;64.14;102211.25;7392835;19;20097;-51
2023/05/24 00:41:33;;;;;;;28.05;8.30;;;;;;;11.62;63.95;102217.16;7390332;19;20015;-51
2023/05/24 00:44:00;;;;;;;29.75;9.65;;;;;;;11.69;63.85;102216.75;7393852;19;20138;-53
2023/05/24 00:46:29;;;;;;;29.50;9.32;;;;;;;11.69;63.65;102208.78;7393103;19;20499;-50
2023/05/24 00:48:57;;;;;;;28.80;9.77;;;;;;;11.69;63.96;102203.47;7391755;19;20014;-54
2023/05/24 00:51:29;;;;;;;28.33;8.77;;;;;;;11.71;64.01;102204.25;7390283;19;20026;-53
2023/05/24 00:53:56;;;;;;;23.25;8.82;;;;;;;11.70;63.60;102207.84;7392215;19;20026;-51
2023/05/24 00:56:23;;;;;;;27.38;9.40;;;;;;;11.69;63.79;102208.78;7391498;19;20486;-50
2023/05/24 00:58:54;;;;;;;25.40;8.48;;;;;;;11.73;63.92;102205.97;7390777;19;20018;-53
2023/05/24 01:01:25;;;;;;;26.45;8.07;;;;;;;11.75;63.64;102218.19;7391505;19;20455;-48
2023/05/24 01:03:52;;;;;;;25.20;8.35;;;;;;;11.77;63.85;102211.00;7393240;19;20018;-50
2023/05/24 01:06:20;;;;;;;29.52;7.63;;;;;;;11.73;63.95;102211.28;7392662;19;20039;-50
2023/05/24 01:09:12;;;;;;;24.08;7.80;;;;;;;11.71;63.97;102209.56;7391992;19;20082;-49
2023/05/24 01:11:50;;;;;;;28.77;7.95;;;;;;;11.71;64.00;102206.03;7390871;19;20014;-52
2023/05/24 01:14:25;;;;;;;22.05;7.88;;;;;;;11.71;64.19;102214.00;7392739;19;20018;-49
2023/05/24 01:17:12;;;;;;;27.95;8.00;;;;;;;11.75;64.13;102196.09;7391661;19;20015;-49
2023/05/24 01:19:42;;;;;;;26.63;8.57;;;;;;;11.73;64.05;102206.81;7391257;19;20022;-51
2023/05/24 01:22:42;;;;;;;26.83;7.93;;;;;;;11.78;63.70;102199.44;7392771;19;20015;-53
2023/05/24 01:25:28;;;;;;;23.38;7.68;;;;;;;11.69;63.95;102202.63;7390620;19;20018;-53
2023/05/24 01:27:57;;;;;;;23.45;7.78;;;;;;;11.69;64.04;102205.28;7392156;19;20025;-54
2023/05/24 01:30:27;;;;;;;26.85;8.05;;;;;;;11.70;63.96;102201.66;7390360;19;20116;-53
2023/05/24 01:32:55;;;;;;;28.08;8.68;;;;;;;11.65;63.98;102198.44;7391411;19;20038;-49
2023/05/24 01:35:22;;;;;;;26.60;9.30;;;;;;;11.63;64.25;102203.78;7391519;19;20029;-51
2023/05/24 01:37:51;;;;;;;31.25;9.15;;;;;;;11.64;64.24;102197.56;7391883;19;20506;-50
2023/05/24 01:40:18;;;;;;;31.85;8.52;;;;;;;11.58;64.12;102189.94;7388673;19;20029;-53
2023/05/24 01:43:22;;;;;;;22.33;7.53;;;;;;;11.75;63.76;102190.78;7390680;19;20022;-51
2023/05/24 01:46:07;;;;;;;27.63;7.90;;;;;;;11.73;63.65;102188.25;7391157;19;20022;-54
2023/05/24 01:48:46;;;;;;;28.25;7.85;;;;;;;11.70;63.83;102196.38;7391655;19;20018;-53
2023/05/24 01:51:17;;;;;;;23.00;7.35;;;;;;;11.68;63.99;102193.81;7390232;19;20029;-52
2023/05/24 01:53:47;;;;;;;22.85;7.75;;;;;;;11.71;63.87;102192.75;7391506;19;20022;-52
2023/05/24 01:56:18;;;;;;;24.92;8.00;;;;;;;11.75;64.10;102196.09;7390785;19;20019;-54
2023/05/24 01:58:46;;;;;;;30.13;8.48;;;;;;;11.80;63.83;102196.72;7388836;19;20011;-50
2023/05/24 02:01:14;;;;;;;23.80;8.35;;;;;;;11.65;64.27;102199.28;7389909;19;20025;-53
2023/05/24 02:03:41;;;;;;;28.35;8.18;;;;;;;11.65;64.33;102193.97;7391140;19;20025;-54
2023/05/24 02:06:09;;;;;;;22.20;7.75;;;;;;;11.65;64.23;102198.44;7390245;19;20018;-54
2023/05/24 02:08:36;;;;;;;27.27;7.63;;;;;;;11.65;64.29;102198.44;7390464;19;20010;-50
2023/05/24 02:11:04;;;;;;;29.83;7.68;;;;;;;11.71;64.11;102184.81;7387716;19;20336;-50
2023/05/24 02:13:31;;;;;;;26.83;8.50;;;;;;;11.78;64.13;102190.63;7391383;19;20018;-48
2023/05/24 02:15:58;;;;;;;27.13;8.10;;;;;;;11.66;64.33;102182.41;7390179;19;20074;-51
2023/05/24 02:18:25;;;;;;;29.35;8.15;;;;;;;11.62;64.52;102185.31;7390501;19;20026;-48
2023/05/24 02:20:52;;;;;;;27.58;8.77;;;;;;;11.65;64.84;102193.13;7389205;19;20488;-49
2023/05/24 02:23:20;;;;;;;27.25;8.20;;;;;;;11.60;64.80;102190.72;7390469;19;20055;-52
2023/05/24 02:25:47;;;;;;;25.85;7.88;;;;;;;11.50;65.44;102183.34;7389748;19;20035;-53
2023/05/24 02:28:14;;;;;;;28.42;8.57;;;;;;;11.55;64.98;102189.25;7389108;19;20501;-49
2023/05/24 02:30:43;;;;;;;27.60;8.85;;;;;;;11.53;65.34;102178.72;7388241;19;20011;-50
2023/05/24 02:33:11;;;;;;;31.33;8.25;;;;;;;11.63;64.87;102184.38;7391146;19;20010;-49
2023/05/24 02:35:40;;;;;;;25.42;7.30;;;;;;;11.63;64.77;102177.25;7389909;19;20559;-49
2023/05/24 02:38:08;;;;;;;22.85;6.97;;;;;;;11.56;65.29;102178.56;7388772;19;20031;-53
2023/05/24 02:40:35;;;;;;;23.13;8.00;;;;;;;11.62;65.03;102177.38;7388174;19;20022;-50
2023/05/24 02:43:03;;;;;;;21.92;7.78;;;;;;;11.67;64.90;102173.50;7388482;19;20026;-50
2023/05/24 02:45:30;;;;;;;27.15;8.40;;;;;;;11.70;64.91;102180.44;7388430;19;20017;-52
2023/05/24 02:47:57;;;;;;;26.45;8.77;;;;;;;11.71;64.99;102177.72;7388419;19;20014;-52
2023/05/24 02:50:24;;;;;;;29.65;9.15;;;;;;;11.84;64.43;102177.91;7388330;19;20361;-49
2023/05/24 02:52:52;;;;;;;29.67;9.20;;;;;;;11.77;64.54;102181.81;7389881;19;20019;-51
2023/05/24 02:55:19;;;;;;;26.50;8.98;;;;;;;11.74;64.37;102179.31;7389363;19;20021;-50
2023/05/24 02:57:46;;;;;;;30.52;10.88;;;;;;;11.69;64.68;102178.75;7394592;19;20033;-49
2023/05/24 03:00:14;;;;;;;26.95;9.85;;;;;;;11.76;64.29;102179.25;7395212;19;20043;-50
2023/05/24 03:02:42;;;;;;;28.80;9.60;;;;;;;11.70;64.42;102172.47;7397379;19;20023;-54
2023/05/24 03:05:09;;;;;;;28.50;9.48;;;;;;;11.69;64.52;102181.38;7396958;19;20026;-54
2023/05/24 03:07:36;;;;;;;26.60;8.75;;;;;;;11.66;64.74;102177.09;7397179;19;20078;-52
2023/05/24 03:10:04;;;;;;;22.23;8.68;;;;;;;11.64;64.59;102176.34;7395402;19;20039;-51
2023/05/24 03:12:31;;;;;;;23.90;8.52;;;;;;;11.67;64.85;102172.66;7393380;19;20014;-50
2023/05/24 03:14:58;;;;;;;28.05;9.20;;;;;;;11.73;64.58;102174.13;7395111;19;20010;-52
2023/05/24 03:17:26;;;;;;;26.20;9.57;;;;;;;11.74;64.68;102176.66;7397029;19;20511;-52
2023/05/24 03:19:55;;;;;;;29.52;9.35;;;;;;;11.77;64.39;102170.34;7395030;19;20022;-50
2023/05/24 03:22:22;;;;;;;25.40;8.23;;;;;;;11.80;64.30;102168.38;7396478;19;20104;-53
2023/05/24 03:24:50;;;;;;;25.02;7.63;;;;;;;11.79;64.21;102171.09;7396391;19;20022;-53
2023/05/24 03:27:17;;;;;;;30.50;8.95;;;;;;;11.73;64.55;102171.47;7396298;19;20086;-54
2023/05/24 03:29:44;;;;;;;24.08;8.90;;;;;;;11.70;64.66;102172.47;7394788;19;20588;-53
2023/05/24 03:32:11;;;;;;;30.98;9.13;;;;;;;11.75;64.39;102173.06;7394880;19;20163;-53
2023/05/24 03:34:38;;;;;;;29.73;9.70;;;;;;;11.73;64.56;102177.63;7395740;19;20019;-52
2023/05/24 03:37:05;;;;;;;28.75;9.63;;;;;;;11.76;64.34;102168.66;7394925;19;20026;-51
2023/05/24 03:39:32;;;;;;;24.25;8.20;;;;;;;11.73;64.57;102166.16;7395265;19;20015;-50
2023/05/24 03:41:59;;;;;;;23.83;8.23;;;;;;;11.75;64.65;102173.06;7395870;19;20014;-53
2023/05/24 03:44:27;;;;;;;27.00;8.43;;;;;;;11.85;64.34;102165.50;7395887;19;20014;-53
2023/05/24 03:46:54;;;;;;;24.92;8.07;;;;;;;11.72;64.53;102170.63;7395077;19;20020;-54
2023/05/24 03:49:21;;;;;;;27.90;7.72;;;;;;;11.67;64.67;102165.53;7393433;19;20029;-54
2023/05/24 03:51:48;;;;;;;23.75;7.32;;;;;;;11.64;64.84;102163.06;7394869;19;20354;-55
2023/05/24 03:54:16;;;;;;;26.58;7.75;;;;;;;11.67;64.73;102154.06;7395510;19;20023;-53
2023/05/24 03:56:44;;;;;;;27.10;7.20;;;;;;;11.73;64.49;102161.69;7394716;19;20046;-51
2023/05/24 03:59:11;;;;;;;28.15;7.03;;;;;;;11.72;64.48;102173.25;7394808;19;20022;-52
2023/05/24 04:01:38;;;;;;;23.50;6.72;;;;;;;11.67;64.77;102168.19;7392544;19;20025;-53
2023/05/24 04:04:06;;;;;;;22.52;7.22;;;;;;;11.75;64.35;102162.44;7395226;19;20014;-49
2023/05/24 04:06:35;;;;;;;25.10;7.45;;;;;;;11.74;64.50;102168.72;7393372;19;20015;-49
2023/05/24 04:09:04;;;;;;;24.63;7.22;;;;;;;11.73;64.93;102160.84;7391801;19;20102;-48
2023/05/24 04:11:31;;;;;;;28.67;9.18;;;;;;;11.77;64.72;102163.25;7391342;19;20022;-48
2023/05/24 04:13:59;;;;;;;26.40;9.32;;;;;;;11.81;64.70;102163.94;7393173;19;20025;-49
2023/05/24 04:16:26;;;;;;;25.63;8.25;;;;;;;11.75;64.74;102161.59;7394333;19;20019;-49
2023/05/24 04:18:55;;;;;;;25.38;8.40;;;;;;;11.82;64.53;102162.97;7394267;19;20015;-49
2023/05/24 04:21:22;;;;;;;24.88;8.27;;;;;;;11.82;64.40;102163.81;7391074;19;20387;-48
2023/05/24 04:23:49;;;;;;;25.98;8.60;;;;;;;11.88;64.46;102152.91;7392752;19;20043;-49
2023/05/24 04:26:17;;;;;;;28.55;8.63;;;;;;;11.83;64.79;102172.63;7392108;19;20014;-51
2023/05/24 04:28:45;;;;;;;23.50;9.15;;;;;;;11.81;64.86;102169.22;7392353;19;20028;-51
2023/05/24 04:31:14;;;;;;;23.45;6.82;;;;;;;11.82;64.74;102169.13;7391259;19;20018;-49
2023/05/24 04:33:41;;;;;;;22.33;6.97;;;;;;;11.82;64.88;102178.91;7393804;19;20025;-53
2023/05/24 04:36:10;;;;;;;26.17;8.25;;;;;;;11.85;64.74;102176.97;7393080;19;20022;-49
2023/05/24 04:38:38;;;;;;;24.38;7.40;;;;;;;11.88;64.53;102178.59;7392917;19;20040;-50
2023/05/24 04:41:05;;;;;;;28.23;7.25;;;;;;;11.90;64.67;102187.31;7392010;19;20039;-51
2023/05/24 04:43:33;;;;;;;31.10;8.20;;;;;;;11.90;64.85;102184.66;7392232;19;20505;-51
2023/05/24 04:46:01;;;;;;;26.88;9.98;;;;;;;11.94;64.50;102192.38;7391953;19;20047;-48
2023/05/24 04:48:28;;;;;;;29.98;8.00;;;;;;;11.97;64.71;102177.22;7393297;19;20025;-48
2023/05/24 04:51:00;;;;;;;28.17;8.65;;;;;;;12.00;64.26;102183.22;7391077;19;20018;-48
2023/05/24 04:53:27;;;;;;;25.35;7.80;;;;;;;11.94;64.66;102187.09;7393175;19;20047;-50
2023/05/24 04:55:54;;;;;;;24.73;7.90;;;;;;;11.91;64.96;102194.38;7392776;19;20018;-48
2023/05/24 04:58:22;;;;;;;26.10;7.80;;;;;;;11.95;64.55;102193.25;7392402;19;20011;-49
2023/05/24 05:00:49;;;;;;;20.83;7.53;;;;;;;11.90;64.89;102188.16;7391096;19;20027;-49
2023/05/24 05:03:16;;;;;;;27.48;8.85;;;;;;;11.98;64.84;102186.88;7392952;19;20022;-48
2023/05/24 05:05:45;;;;;;;25.33;7.85;;;;;;;11.98;64.88;102200.16;7393075;19;20014;-49
2023/05/24 05:08:15;;;;;;;23.23;8.35;;;;;;;12.03;65.13;102193.66;7391841;19;20010;-48
2023/05/24 05:10:43;;;;;;;23.65;8.65;;;;;;;11.94;65.51;102192.38;7390055;19;20094;-50
2023/05/24 05:13:10;;;;;;;21.20;7.93;;;;;;;11.95;65.73;102195.91;7389527;19;20035;-49
2023/05/24 05:15:37;;;;;;;25.77;7.85;;;;;;;12.02;65.86;102193.72;7392750;19;20024;-48
2023/05/24 05:18:07;;;;;;;26.35;8.50;;;;;;;12.01;66.23;102195.53;7393023;19;20034;-52
2023/05/24 05:20:34;;;;;;;24.70;7.32;;;;;;;11.92;66.68;102191.59;7389901;19;20039;-52
2023/05/24 05:23:02;;;;;;;28.67;7.18;;;;;;;11.97;66.94;102203.75;7392535;19;20467;-48
2023/05/24 05:25:29;;;;;;;28.35;7.95;;;;;;;11.96;66.75;102202.91;7390475;19;20044;-50
2023/05/24 05:27:57;;;;;;;22.90;8.10;;;;;;;12.00;66.99;102206.25;7392769;19;20052;-51
2023/05/24 05:30:24;;;;;;;22.88;7.10;;;;;;;11.93;67.29;102203.06;7388938;19;20033;-50
2023/05/24 05:32:51;;;;;;;26.70;7.78;;;;;;;11.92;67.51;102207.53;7389746;19;20025;-52
2023/05/24 05:35:18;;;;;;;22.50;6.57;;;;;;;11.92;67.89;102199.56;7392143;19;20014;-52
2023/05/24 05:37:45;;;;;;;23.92;7.05;;;;;;;11.92;68.07;102206.69;7391090;19;20113;-50
2023/05/24 05:40:13;;;;;;;24.52;7.22;;;;;;;11.94;68.40;102208.31;7389499;19;20024;-51
2023/05/24 05:42:40;;;;;;;22.33;6.45;;;;;;;11.90;68.14;102197.94;7391882;19;20029;-51
2023/05/24 05:45:08;;;;;;;19.15;6.10;;;;;;;11.86;68.65;102205.22;7390133;19;20018;-53
2023/05/24 05:47:35;;;;;;;19.88;6.35;;;;;;;11.91;68.46;102202.31;7391994;19;20029;-51
2023/05/24 05:50:02;;;;;;;20.75;6.20;;;;;;;11.97;68.50;102203.75;7390940;19;20029;-50
2023/05/24 05:52:29;;;;;;;20.95;6.95;;;;;;;11.93;68.39;102203.06;7390327;19;20014;-49
2023/05/24 05:54:58;;;;;;;27.02;7.45;;;;;;;11.96;68.16;102202.91;7389438;19;20557;-51
2023/05/24 05:57:25;;;;;;;24.95;7.25;;;;;;;12.05;68.20;102209.50;7391014;19;20019;-49
2023/05/24 05:59:52;;;;;;;20.42;6.43;;;;;;;12.01;68.56;102214.13;7388707;19;20100;-48
2023/05/24 06:02:23;;;;;;;26.77;7.15;;;;;;;12.07;68.41;102212.94;7391393;19;20014;-54
2023/05/24 06:04:50;;;;;;;24.85;6.78;;;;;;;12.07;68.14;102215.59;7391068;19;20042;-52
2023/05/24 06:07:20;;;;;;;23.35;5.95;;;;;;;12.16;68.14;102226.53;7391430;19;20018;-52
2023/05/24 06:09:47;;;;;;;20.80;5.40;;;;;;;12.07;68.22;102213.78;7390221;19;20022;-52
2023/05/24 06:12:15;;;;;;;23.77;6.18;;;;;;;12.06;68.33;102224.50;7389855;19;20471;-48
2023/05/24 06:14:43;;;;;;;20.70;5.75;;;;;;;12.14;68.28;102228.44;7390445;19;20022;-48
2023/05/24 06:17:10;;;;;;;24.10;6.57;;;;;;;12.15;68.28;102223.97;7390939;19;20022;-53
2023/05/24 06:19:38;;;;;;;21.08;6.10;;;;;;;12.20;68.62;102221.91;7389002;19;20042;-51
2023/05/24 06:22:05;;;;;;;21.45;6.15;;;;;;;12.18;68.72;102222.00;7389011;19;20015;-49
2023/05/24 06:24:33;;;;;;;18.30;5.72;;;;;;;12.14;68.76;102230.25;7388894;19;20015;-48
2023/05/24 06:27:01;;;;;;;24.55;6.05;;;;;;;12.14;69.04;102239.06;7388839;19;20039;-49
2023/05/24 06:29:31;;;;;;;22.30;5.50;;;;;;;12.17;69.18;102238.88;7389263;19;20018;-49
2023/05/24 06:31:58;;;;;;;22.75;6.00;;;;;;;12.18;68.91;102237.09;7391264;19;20021;-48
2023/05/24 06:34:26;;;;;;;23.20;6.00;;;;;;;12.19;69.35;102234.34;7397595;19;20018;-49
2023/05/24 06:36:53;;;;;;;19.08;5.28;;;;;;;12.27;68.99;102241.88;7395964;19;20010;-48
2023/05/24 06:39:20;;;;;;;25.63;6.78;;;;;;;12.27;68.66;102244.53;7397093;19;20018;-48
2023/05/24 06:41:50;;;;;;;22.38;6.38;;;;;;;12.25;68.96;102254.38;7396587;19;20019;-49
2023/05/24 06:44:17;;;;;;;27.20;6.40;;;;;;;12.28;68.78;102251.53;7397747;19;20026;-48
2023/05/24 06:46:45;;;;;;;21.40;5.95;;;;;;;12.34;69.03;102256.50;7396010;19;20105;-48
2023/05/24 06:49:12;;;;;;;23.65;5.80;;;;;;;12.32;68.97;102252.22;7396877;19;20018;-50
2023/05/24 06:51:39;;;;;;;19.13;5.82;;;;;;;12.32;68.85;102257.53;7394640;19;20021;-50
2023/05/24 06:54:07;;;;;;;21.45;5.75;;;;;;;12.43;68.92;102255.13;7396037;19;20011;-53
2023/05/24 06:56:34;;;;;;;26.77;6.43;;;;;;;12.46;68.45;102254.09;7397386;19;20011;-48
2023/05/24 06:59:01;;;;;;;23.25;6.15;;;;;;;12.48;68.47;102252.19;7396603;19;20038;-48
2023/05/24 07:01:29;;;;;;;24.77;6.20;;;;;;;12.36;68.62;102256.41;7394473;19;20021;-52
2023/05/24 07:03:56;;;;;;;25.20;6.00;;;;;;;12.46;68.46;102256.75;7395720;19;20011;-49
2023/05/24 07:06:23;;;;;;;23.63;6.30;;;;;;;12.48;68.21;102255.72;7396282;19;20019;-50
2023/05/24 07:08:51;;;;;;;23.58;6.28;;;;;;;12.51;68.16;102257.34;7396665;19;20018;-49
2023/05/24 07:11:18;;;;;;;25.63;6.65;;;;;;;12.47;68.12;102261.97;7395222;19;20032;-52
2023/05/24 07:13:46;;;;;;;20.02;6.07;;;;;;;12.48;68.46;102266.34;7394429;19;20022;-48
2023/05/24 07:16:13;;;;;;;21.58;6.63;;;;;;;12.53;68.63;102261.63;7396631;19;20748;-48
2023/05/24 07:18:40;;;;;;;22.60;6.70;;;;;;;12.55;68.00;102266.84;7396361;19;20026;-48
2023/05/24 07:21:08;;;;;;;23.33;6.40;;;;;;;12.56;68.09;102264.13;7394909;19;20046;-52
2023/05/24 07:23:36;;;;;;;26.08;7.03;;;;;;;12.61;68.13;102269.16;7396868;19;20047;-48
2023/05/24 07:26:04;;;;;;;22.20;6.45;;;;;;;12.63;68.08;102264.59;7396218;19;20019;-48
2023/05/24 07:28:31;;;;;;;26.85;7.00;;;;;;;12.61;68.09;102280.63;7395535;19;20421;-48
2023/05/24 07:30:59;;;;;;;22.23;6.07;;;;;;;12.55;68.43;102275.66;7394811;19;20019;-48
2023/05/24 07:33:26;;;;;;;24.58;6.43;;;;;;;12.53;68.70;102271.41;7394608;19;20043;-48
2023/05/24 07:35:53;;;;;;;24.42;6.22;;;;;;;12.57;68.34;102278.25;7396188;19;20022;-48
2023/05/24 07:38:21;;;;;;;28.35;6.68;;;;;;;12.58;68.57;102270.19;7394165;19;20027;-50
2023/05/24 07:40:48;;;;;;;22.90;6.78;;;;;;;12.66;68.60;102265.28;7394894;19;20017;-49
2023/05/24 07:43:15;;;;;;;25.85;6.22;;;;;;;12.85;67.97;102272.19;7395224;19;20111;-50
2023/05/24 07:45:42;;;;;;;22.30;6.35;;;;;;;12.96;67.73;102263.56;7393582;19;20015;-50
2023/05/24 07:48:10;;;;;;;23.25;6.75;;;;;;;12.87;67.83;102272.97;7392259;19;20010;-51
2023/05/24 07:50:37;;;;;;;22.27;5.95;;;;;;;12.84;68.11;102275.78;7391700;19;20018;-51
2023/05/24 07:53:06;;;;;;;27.08;6.85;;;;;;;12.84;68.24;102275.78;7394277;19;20018;-50
2023/05/24 07:55:33;;;;;;;25.15;5.75;;;;;;;12.95;67.94;102283.13;7393410;19;20022;-49
2023/05/24 07:58:00;;;;;;;27.50;6.47;;;;;;;12.99;68.09;102279.34;7396050;19;20033;-52
2023/05/24 08:00:28;;;;;;;28.80;6.72;;;;;;;13.01;67.89;102290.72;7394428;19;20036;-52
2023/05/24 08:02:56;;;;;;;25.73;6.70;;;;;;;13.00;68.09;102292.53;7393217;19;20027;-52
2023/05/24 08:05:23;;;;;;;25.35;6.65;;;;;;;13.07;67.85;102293.03;7394097;19;20032;-53
2023/05/24 08:07:51;;;;;;;24.10;5.97;;;;;;;13.05;68.21;102290.50;7393521;19;20023;-51
2023/05/24 08:10:22;;;;;;;22.73;5.85;;;;;;;13.03;68.23;102295.03;7392632;19;20038;-54
2023/05/24 08:12:53;;;;;;;23.60;6.22;;;;;;;12.94;68.71;102287.59;7390942;19;20021;-51
2023/05/24 08:15:20;;;;;;;24.92;6.80;;;;;;;12.90;68.70;102289.59;7393942;19;20015;-52
2023/05/24 08:17:48;;;;;;;26.92;5.68;;;;;;;12.88;68.72;102291.47;7394441;19;20019;-52
2023/05/24 08:20:16;;;;;;;25.13;6.03;;;;;;;12.93;68.82;102289.41;7393102;19;20023;-53
2023/05/24 08:22:44;;;;;;;26.92;6.63;;;;;;;13.01;68.89;102294.28;7394267;19;20036;-52
2023/05/24 08:25:11;;;;;;;21.92;6.20;;;;;;;12.99;68.47;102295.31;7393661;19;20025;-53
2023/05/24 08:27:38;;;;;;;21.55;5.68;;;;;;;13.01;68.42;102294.28;7393484;19;20047;-53
2023/05/24 08:30:07;;;;;;;25.40;6.22;;;;;;;13.04;68.98;102303.84;7391058;19;20051;-53
2023/05/24 08:32:37;;;;;;;22.23;6.22;;;;;;;12.98;68.78;102306.91;7393724;19;20029;-52
2023/05/24 08:35:04;;;;;;;25.55;6.65;;;;;;;13.02;68.92;102306.63;7393279;19;20022;-53
2023/05/24 08:37:46;;;;;;;19.52;5.60;;;;;;;13.12;68.46;102301.59;7393924;19;20018;-53
2023/05/24 08:40:14;;;;;;;27.33;6.57;;;;;;;13.11;68.66;102306.06;7392195;19;20022;-49
2023/05/24 08:42:41;;;;;;;21.55;6.10;;;;;;;13.07;68.56;102316.97;7394025;19;20019;-54
2023/05/24 08:45:13;;;;;;;29.42;6.75;;;;;;;13.07;68.69;102309.84;7392789;19;20018;-51
2023/05/24 08:47:41;;;;;;;25.42;6.35;;;;;;;13.06;68.84;102316.13;7393701;19;20011;-50
2023/05/24 08:50:10;;;;;;;26.40;6.40;;;;;;;13.09;68.39;102321.28;7392128;19;20026;-48
2023/05/24 08:52:38;;;;;;;23.48;6.30;;;;;;;13.11;68.31;102326.50;7392688;19;20482;-51
2023/05/24 08:55:06;;;;;;;22.85;6.10;;;;;;;13.11;68.38;102322.03;7390851;19;20022;-50
2023/05/24 08:57:38;;;;;;;24.10;6.57;;;;;;;13.15;68.50;102323.56;7391898;19;20579;-53
2023/05/24 09:00:09;;;;;;;22.77;6.28;;;;;;;13.22;68.30;102316.06;7391472;19;20025;-50
2023/05/24 09:02:38;;;;;;;22.25;6.57;;;;;;;13.27;68.33;102319.34;7392840;19;20037;-49
2023/05/24 09:05:09;;;;;;;30.25;7.10;;;;;;;13.33;68.35;102326.97;7391931;19;20492;-52
2023/05/24 09:07:37;;;;;;;25.58;6.28;;;;;;;13.28;68.64;102328.16;7392612;19;20018;-50
2023/05/24 09:10:06;;;;;;;30.52;6.55;;;;;;;13.22;69.20;102325.84;7391016;19;20025;-51
2023/05/24 09:12:35;;;;;;;28.65;6.38;;;;;;;13.27;69.23;102329.13;7390630;19;20022;-52
2023/05/24 09:15:06;;;;;;;25.63;6.60;;;;;;;13.27;69.09;102324.66;7391716;19;20018;-49
2023/05/24 09:17:35;;;;;;;23.20;6.25;;;;;;;13.29;68.97;102325.44;7393146;19;20025;-51
2023/05/24 09:20:07;;;;;;;24.45;6.25;;;;;;;13.36;69.07;102325.94;7390980;19;20142;-48
2023/05/24 09:22:37;;;;;;;26.48;6.40;;;;;;;13.40;68.82;102317.66;7390846;19;20025;-48
2023/05/24 09:25:09;;;;;;;24.58;6.43;;;;;;;13.45;68.91;102325.38;7390422;19;20018;-49
2023/05/24 09:27:37;;;;;;;22.83;5.93;;;;;;;13.38;69.02;102330.19;7390434;19;20018;-48
2023/05/24 09:30:11;;;;;;;23.35;5.80;;;;;;;13.41;68.70;102334.47;7386006;19;20019;-50
2023/05/24 09:32:39;;;;;;;26.05;6.43;;;;;;;13.30;68.55;102342.25;7389895;19;20055;-52
2023/05/24 09:35:08;;;;;;;25.35;6.35;;;;;;;13.36;68.82;102337.44;7391330;19;20525;-51
2023/05/24 09:37:37;;;;;;;23.35;5.45;;;;;;;13.46;69.13;102336.84;7389664;19;20014;-51
2023/05/24 09:40:07;;;;;;;24.65;5.97;;;;;;;13.46;68.73;102336.84;7390493;19;20077;-50
2023/05/24 09:42:34;;;;;;;24.75;6.20;;;;;;;13.55;68.59;102334.50;7391295;19;20141;-48
2023/05/24 09:45:08;;;;;;;23.83;6.78;;;;;;;13.57;68.63;102337.91;7390976;19;20061;-51
2023/05/24 09:47:37;;;;;;;25.08;6.82;;;;;;;13.58;68.66;102346.75;7389979;19;20030;-49
2023/05/24 09:50:11;;;;;;;21.42;6.30;;;;;;;13.65;67.67;102343.63;7389980;19;20014;-49
2023/05/24 09:52:39;;;;;;;25.08;6.53;;;;;;;13.71;67.08;102342.41;7383247;19;20102;-49
2023/05/24 09:55:14;;;;;;;27.00;7.18;;;;;;;13.91;66.46;102354.47;7390607;19;20036;-49
2023/05/24 09:57:43;;;;;;;25.45;6.47;;;;;;;14.14;65.69;102345.91;7391267;19;20026;-49
2023/05/24 10:00:20;;;;;;;24.67;7.03;;;;;;;14.37;65.05;102346.25;7388274;19;20022;-52
2023/05/24 10:03:03;;;;;;;27.73;6.75;;;;;;;14.56;64.42;102346.81;7391320;19;20022;-51
2023/05/24 10:05:30;;;;;;;24.85;6.85;;;;;;;14.72;63.83;102343.13;7390864;19;20035;-50
2023/05/24 10:07:59;;;;;;;24.75;5.85;;;;;;;14.92;62.84;102348.03;7390953;19;20014;-49
2023/05/24 10:10:28;;;;;;;23.98;6.20;;;;;;;14.73;63.61;102345.72;7389096;19;20086;-49
2023/05/24 10:12:57;;;;;;;19.15;5.90;;;;;;;14.82;63.19;102337.09;7389254;19;20018;-48
2023/05/24 10:15:25;;;;;;;24.88;6.55;;;;;;;15.05;62.37;102338.22;7390114;19;20018;-48
2023/05/24 10:17:55;;;;;;;25.10;6.25;;;;;;;15.15;61.75;102337.59;7390925;19;20046;-48
2023/05/24 10:20:23;;;;;;;26.17;6.45;;;;;;;15.24;61.75;102345.00;7386868;19;20026;-48
2023/05/24 10:22:58;;;;;;;23.23;5.88;;;;;;;15.03;62.27;102356.19;7390429;19;20509;-49
2023/05/24 10:25:27;;;;;;;19.90;6.15;;;;;;;14.84;62.57;102348.53;7389540;19;20094;-48
2023/05/24 10:27:57;;;;;;;21.23;5.50;;;;;;;14.77;62.93;102349.91;7390619;19;20014;-53
2023/05/24 10:30:36;;;;;;;25.45;6.55;;;;;;;14.65;62.90;102356.00;7388455;19;20028;-52
2023/05/24 10:33:06;;;;;;;24.55;6.35;;;;;;;14.52;63.87;102350.63;7388415;19;20032;-53
2023/05/24 10:35:36;;;;;;;24.13;6.38;;;;;;;14.62;63.82;102350.91;7389045;19;20022;-53
2023/05/24 10:38:06;;;;;;;23.10;6.72;;;;;;;14.67;63.40;102348.78;7390127;19;20018;-49
2023/05/24 10:40:34;;;;;;;22.80;6.40;;;;;;;14.74;63.01;102347.44;7387973;19;20036;-53
2023/05/24 10:43:07;;;;;;;25.65;6.65;;;;;;;14.69;63.30;102346.00;7390085;19;20582;-52
2023/05/24 10:45:40;;;;;;;23.13;5.73;;;;;;;14.50;63.76;102338.34;7389410;19;20022;-52
2023/05/24 10:48:08;;;;;;;;;;;;;;;14.35;63.91;102348.19;7388983;19;20271;-53
2023/05/24 10:50:36;;;;;;;21.17;6.22;;;;;;;14.26;64.41;102341.59;7385821;19;19978;-51
2023/05/24 10:53:13;;;;;;;19.20;5.15;;;;;;;14.32;63.57;102351.03;7389111;19;20014;-53
2023/05/24 10:56:07;;;;;;;19.55;5.40;;;;;;;14.35;63.18;102351.69;7389531;19;20039;-53
2023/05/24 10:58:59;;;;;;;21.67;5.43;;;;;;;14.36;63.12;102355.22;7389336;19;20022;-52
2023/05/24 11:01:30;;;;;;;14.85;4.93;;;;;;;14.37;63.00;102349.78;7387192;19;20018;-48
2023/05/24 11:04:15;;;;;;;24.83;5.45;;;;;;;14.60;62.64;102358.13;7390244;19;20022;-49
2023/05/24 11:06:49;;;;;;;19.70;5.72;;;;;;;14.61;62.22;102359.84;7388988;19;20018;-48
2023/05/24 11:09:18;;;;;;;;;;;;;;;14.54;62.26;102353.22;7389403;19;20051;-50
2023/05/24 11:11:48;;;;;;;16.42;4.72;;;;;;;14.61;62.18;102358.06;7389455;19;19951;-48
2023/05/24 11:14:31;;;;;;;20.48;5.35;;;;;;;14.70;61.38;102363.72;7388066;19;20026;-49
2023/05/24 11:16:59;;;;;;;16.98;4.40;;;;;;;14.66;61.61;102357.75;7386817;19;20036;-50
2023/05/24 11:19:36;;;;;;;15.10;4.40;;;;;;;14.73;61.31;102364.38;7392318;19;20039;-49
2023/05/24 11:22:06;;;;;;;19.80;5.22;;;;;;;14.72;61.24;102361.81;7396839;19;20029;-50
2023/05/24 11:24:35;;;;;;;16.70;4.93;;;;;;;14.75;61.28;102361.59;7395861;19;20030;-51
2023/05/24 11:27:02;;;;;;;17.70;4.80;;;;;;;14.75;61.29;102359.78;7396043;19;20025;-49